Las Vegas, Nevada
Traffic Map
Current Weather Conditions
Las Vegas, Nevada
Overcast
Overcast
48°
Feels Like: 45°
Wind Chill: 45° Ceiling: 15000
Heat Index: 48° Visibility: 10mi
Dew Point: 31° Wind: 6mph
Humidity: 52% Direction: 160° (SSE)
Pressure: 30in Gusts: 0mph
Raw Report DataKLAS 220756Z 16005KT 10SM FEW080 BKN150 OVC200 09/M01 A3000 RMK AO2 SLP154 T00891006 401390061
Traffic Incident Summary
Active as of:
Severity:
Category:
InformationThere was an issue retrieving the traffic information for this location. Please try a different location or try again shortly.
Advertisements
Track Severe Weather on mobile